createdAt,value
2023-03-28T00:01:37.618Z,6.93
2023-03-28T00:04:07.443Z,6.65
2023-03-28T00:06:38.533Z,10.05
2023-03-28T00:09:08.325Z,9.35
2023-03-28T00:11:37.916Z,9.38
2023-03-28T00:14:08.499Z,7.25
2023-03-28T00:16:41.917Z,7.72
2023-03-28T00:19:13.551Z,6.90
2023-03-28T00:21:47.180Z,5.47
2023-03-28T00:24:18.922Z,7.93
2023-03-28T00:26:54.824Z,8.68
2023-03-28T00:29:26.270Z,5.25
2023-03-28T00:31:58.779Z,6.93
2023-03-28T00:34:28.912Z,7.60
2023-03-28T00:36:58.624Z,7.20
2023-03-28T00:39:29.666Z,7.07
2023-03-28T00:41:59.315Z,7.30
2023-03-28T00:44:46.078Z,5.60
2023-03-28T00:47:28.518Z,8.25
2023-03-28T00:50:03.191Z,6.00
2023-03-28T00:52:39.257Z,7.70
2023-03-28T00:55:13.019Z,9.00
2023-03-28T00:57:43.321Z,6.30
2023-03-28T01:00:17.876Z,7.43
2023-03-28T01:02:53.461Z,8.57
2023-03-28T01:05:29.277Z,8.20
2023-03-28T01:08:02.842Z,8.02
2023-03-28T01:10:34.809Z,6.95
2023-03-28T01:13:05.806Z,7.45
2023-03-28T01:15:35.602Z,6.40
2023-03-28T01:18:11.757Z,6.53
2023-03-28T01:21:24.560Z,6.78
2023-03-28T01:24:33.900Z,6.38
2023-03-28T01:27:09.948Z,6.90
2023-03-28T01:30:15.578Z,6.22
2023-03-28T01:33:11.921Z,7.70
2023-03-28T01:36:09.921Z,7.45
2023-03-28T01:38:50.128Z,8.05
2023-03-28T01:41:26.006Z,5.82
2023-03-28T01:44:07.308Z,6.97
2023-03-28T01:46:41.753Z,7.65
2023-03-28T01:49:18.314Z,7.72
2023-03-28T01:51:55.502Z,9.63
2023-03-28T01:54:33.482Z,8.43
2023-03-28T01:57:10.683Z,7.35
2023-03-28T01:59:44.300Z,7.72
2023-03-28T02:02:20.790Z,8.38
2023-03-28T02:04:52.929Z,7.38
2023-03-28T02:07:29.054Z,7.13
2023-03-28T02:10:01.924Z,8.13
2023-03-28T02:12:38.148Z,8.48
2023-03-28T02:17:45.619Z,8.32
2023-03-28T02:20:19.950Z,10.82
2023-03-28T02:22:54.179Z,9.60
2023-03-28T02:25:26.497Z,10.75
2023-03-28T02:28:01.431Z,13.80
2023-03-28T02:30:31.021Z,12.90
2023-03-28T02:33:04.078Z,9.13
2023-03-28T02:35:49.758Z,11.75
2023-03-28T02:38:29.851Z,10.93
2023-03-28T02:41:10.454Z,13.05
2023-03-28T02:43:59.047Z,10.95
2023-03-28T02:46:33.160Z,10.77
2023-03-28T02:49:25.677Z,11.43
2023-03-28T02:52:09.432Z,10.23
2023-03-28T02:54:44.763Z,11.18
2023-03-28T02:57:21.444Z,11.27
2023-03-28T02:59:56.841Z,10.85
2023-03-28T03:02:29.248Z,11.55
2023-03-28T03:05:01.998Z,12.05
2023-03-28T03:07:32.294Z,12.23
2023-03-28T03:10:01.932Z,10.23
2023-03-28T03:12:34.040Z,11.40
2023-03-28T03:15:04.229Z,10.50
2023-03-28T03:17:33.835Z,9.40
2023-03-28T03:20:07.036Z,8.90
2023-03-28T03:22:37.380Z,10.43
2023-03-28T03:25:08.394Z,8.90
2023-03-28T03:27:41.212Z,8.05
2023-03-28T03:30:12.111Z,7.28
2023-03-28T03:32:44.224Z,7.15
2023-03-28T03:35:14.272Z,9.52
2023-03-28T03:37:44.053Z,7.07
2023-03-28T03:40:14.206Z,7.40
2023-03-28T03:42:46.326Z,8.25
2023-03-28T03:45:15.981Z,11.07
2023-03-28T03:47:45.606Z,7.32
2023-03-28T03:50:15.407Z,7.53
2023-03-28T03:52:44.945Z,7.05
2023-03-28T03:55:14.680Z,8.07
2023-03-28T03:57:46.787Z,5.68
2023-03-28T04:00:17.404Z,7.30
2023-03-28T04:02:47.040Z,6.25
2023-03-28T04:05:17.068Z,6.38
2023-03-28T04:07:46.710Z,6.75
2023-03-28T04:10:16.266Z,5.18
2023-03-28T04:12:48.486Z,8.60
2023-03-28T04:15:18.254Z,7.70
2023-03-28T04:17:50.413Z,6.07
2023-03-28T04:20:21.168Z,7.05
2023-03-28T04:22:50.756Z,7.43
2023-03-28T04:25:20.575Z,6.25
2023-03-28T04:27:54.781Z,8.05
2023-03-28T04:30:26.003Z,5.72
2023-03-28T04:32:55.672Z,6.72
2023-03-28T04:35:26.416Z,6.35
2023-03-28T04:37:58.027Z,6.45
2023-03-28T04:40:28.337Z,4.60
2023-03-28T04:43:00.479Z,5.15
2023-03-28T04:45:30.225Z,5.85
2023-03-28T04:47:59.818Z,5.03
2023-03-28T04:50:29.373Z,5.88
2023-03-28T04:52:58.885Z,4.78
2023-03-28T04:55:28.791Z,5.80
2023-03-28T04:58:01.091Z,5.80
2023-03-28T05:00:30.779Z,5.20
2023-03-28T05:03:05.149Z,6.50
2023-03-28T05:05:35.496Z,5.82
2023-03-28T05:08:05.263Z,4.65
2023-03-28T05:10:34.838Z,6.65
2023-03-28T05:13:07.160Z,6.80
2023-03-28T05:15:36.765Z,8.18
2023-03-28T05:18:07.085Z,7.20
2023-03-28T05:20:36.881Z,4.78
2023-03-28T05:23:07.495Z,5.35
2023-03-28T05:25:37.360Z,5.00
2023-03-28T05:28:09.633Z,6.30
2023-03-28T05:30:39.180Z,4.95
2023-03-28T05:33:08.806Z,6.35
2023-03-28T05:35:39.378Z,8.05
2023-03-28T05:38:09.217Z,5.18
2023-03-28T05:40:39.807Z,6.60
2023-03-28T05:43:11.939Z,4.65
2023-03-28T05:45:42.005Z,7.00
2023-03-28T05:48:11.632Z,5.43
2023-03-28T05:50:41.280Z,6.25
2023-03-28T05:53:10.962Z,6.30
2023-03-28T05:55:40.623Z,5.65
2023-03-28T05:58:13.061Z,5.68
2023-03-28T06:00:42.896Z,7.20
2023-03-28T06:03:16.469Z,5.55
2023-03-28T06:05:47.430Z,5.15
2023-03-28T06:08:16.988Z,6.07
2023-03-28T06:10:46.775Z,4.50
2023-03-28T06:13:19.714Z,6.05
2023-03-28T06:15:49.290Z,5.68
2023-03-28T06:18:18.802Z,5.47
2023-03-28T06:20:48.459Z,5.53
2023-03-28T06:23:17.985Z,6.07
2023-03-28T06:25:47.809Z,4.85
2023-03-28T06:28:19.981Z,5.93
2023-03-28T06:30:51.797Z,7.13
2023-03-28T06:33:21.374Z,6.07
2023-03-28T06:35:51.681Z,5.80
2023-03-28T06:38:21.559Z,4.40
2023-03-28T06:40:51.131Z,3.50
2023-03-28T06:43:23.255Z,5.40
2023-03-28T06:45:52.831Z,3.50
2023-03-28T06:48:22.451Z,5.30
2023-03-28T06:50:52.825Z,3.67
2023-03-28T06:53:22.760Z,3.75
2023-03-28T06:55:52.689Z,3.03
2023-03-28T06:58:26.217Z,3.67
2023-03-28T07:00:56.332Z,7.15
2023-03-28T07:03:25.930Z,4.90
2023-03-28T07:05:55.690Z,5.90
2023-03-28T07:08:25.746Z,3.40
2023-03-28T07:10:55.305Z,6.88
2023-03-28T07:13:27.446Z,14.27
2023-03-28T07:16:04.148Z,6.50
2023-03-28T07:18:33.840Z,3.80
2023-03-28T07:21:09.586Z,4.22
2023-03-28T07:23:39.506Z,4.63
2023-03-28T07:26:10.046Z,3.65
2023-03-28T07:28:42.487Z,3.53
2023-03-28T07:31:12.454Z,2.42
2023-03-28T07:33:42.443Z,3.28
2023-03-28T07:36:14.785Z,3.97
2023-03-28T07:38:47.278Z,5.32
2023-03-28T07:41:18.313Z,5.13
2023-03-28T07:43:50.432Z,3.38
2023-03-28T07:46:21.189Z,3.13
2023-03-28T07:48:50.834Z,5.40
2023-03-28T07:51:20.702Z,5.05
2023-03-28T07:53:50.562Z,6.53
2023-03-28T07:56:20.173Z,6.03
2023-03-28T07:58:52.264Z,4.78
2023-03-28T08:01:23.027Z,5.30
2023-03-28T08:03:52.987Z,5.00
2023-03-28T08:06:32.180Z,6.68
2023-03-28T08:09:02.567Z,5.38
2023-03-28T08:11:32.108Z,4.05
2023-03-28T08:14:04.472Z,5.18
2023-03-28T08:16:34.676Z,4.88
2023-03-28T08:21:39.507Z,6.15
2023-03-28T08:24:12.906Z,4.90
2023-03-28T08:26:46.733Z,4.05
2023-03-28T08:29:20.842Z,4.55
2023-03-28T08:31:50.851Z,3.45
2023-03-28T08:34:20.537Z,5.18
2023-03-28T08:36:50.148Z,4.25
2023-03-28T08:39:19.672Z,6.03
2023-03-28T08:42:06.353Z,5.05
2023-03-28T08:47:28.310Z,4.68
2023-03-28T08:50:05.558Z,3.38
2023-03-28T08:52:35.557Z,4.35
2023-03-28T08:55:09.080Z,3.97
2023-03-28T08:57:39.242Z,5.28
2023-03-28T09:00:19.592Z,4.40
2023-03-28T09:02:51.786Z,4.30
2023-03-28T09:05:35.017Z,4.25
2023-03-28T09:08:19.785Z,4.25
2023-03-28T09:10:56.053Z,5.38
2023-03-28T09:13:38.983Z,3.50
2023-03-28T09:16:39.945Z,3.17
2023-03-28T09:19:34.199Z,4.22
2023-03-28T09:22:21.951Z,3.72
2023-03-28T09:25:08.566Z,6.75
2023-03-28T09:30:20.915Z,3.67
2023-03-28T09:32:58.480Z,4.10
2023-03-28T09:35:30.600Z,3.95
2023-03-28T09:38:05.434Z,4.53
2023-03-28T09:40:36.704Z,5.22
2023-03-28T09:43:18.241Z,3.80
2023-03-28T09:45:54.933Z,3.78
2023-03-28T09:48:31.170Z,4.90
2023-03-28T09:53:33.308Z,5.57
2023-03-28T09:56:06.096Z,5.78
2023-03-28T09:58:54.082Z,5.40
2023-03-28T10:01:32.913Z,3.15
2023-03-28T10:04:05.203Z,3.78
2023-03-28T10:06:35.010Z,3.25
2023-03-28T10:09:21.072Z,3.35
2023-03-28T10:11:54.644Z,3.38
2023-03-28T10:14:35.870Z,5.57
2023-03-28T10:17:08.382Z,3.67
2023-03-28T10:19:44.804Z,7.32
2023-03-28T10:22:17.844Z,3.22
2023-03-28T10:24:48.894Z,1.95
2023-03-28T10:27:24.134Z,3.60
2023-03-28T10:29:55.074Z,3.85
2023-03-28T10:32:29.943Z,2.55
2023-03-28T10:35:10.116Z,6.40
2023-03-28T10:37:39.728Z,3.28
2023-03-28T10:40:26.436Z,4.80
2023-03-28T10:42:56.108Z,2.75
2023-03-28T10:45:33.313Z,3.28
2023-03-28T10:48:06.972Z,2.83
2023-03-28T10:50:44.936Z,3.55
2023-03-28T10:53:35.326Z,2.55
2023-03-28T10:56:14.658Z,2.67
2023-03-28T10:58:53.429Z,3.20
2023-03-28T11:01:25.116Z,3.08
2023-03-28T11:04:21.387Z,2.92
2023-03-28T11:07:01.948Z,2.15
2023-03-28T11:09:42.521Z,2.92
2023-03-28T11:12:28.582Z,3.95
2023-03-28T11:15:09.028Z,2.40
2023-03-28T11:17:48.886Z,3.83
2023-03-28T11:20:38.660Z,3.22
2023-03-28T11:23:43.516Z,2.08
2023-03-28T11:26:19.038Z,3.50
2023-03-28T11:29:08.997Z,5.75
2023-03-28T11:31:43.986Z,3.83
2023-03-28T11:34:22.966Z,4.55
2023-03-28T11:36:56.662Z,5.97
2023-03-28T11:39:38.935Z,3.40
2023-03-28T11:42:18.476Z,3.95
2023-03-28T11:45:03.614Z,2.90
2023-03-28T11:47:39.837Z,3.50
2023-03-28T11:52:50.891Z,3.00
2023-03-28T11:55:23.833Z,3.72
2023-03-28T11:58:00.011Z,3.75
2023-03-28T12:03:17.194Z,5.07
2023-03-28T12:05:57.796Z,6.82
2023-03-28T12:08:37.630Z,4.50
2023-03-28T12:11:10.821Z,4.53
2023-03-28T12:13:55.443Z,5.32
2023-03-28T12:16:40.709Z,6.03
2023-03-28T12:19:17.785Z,3.42
2023-03-28T12:21:52.743Z,3.33
2023-03-28T12:24:30.063Z,4.18
2023-03-28T12:27:09.491Z,4.38
2023-03-28T12:29:47.398Z,3.70
2023-03-28T12:32:39.354Z,3.53
2023-03-28T12:35:18.119Z,5.57
2023-03-28T12:38:05.509Z,6.82
2023-03-28T12:40:52.276Z,4.68
2023-03-28T12:43:26.198Z,3.50
2023-03-28T12:46:02.901Z,4.55
2023-03-28T12:48:39.705Z,3.67
2023-03-28T12:51:16.565Z,4.50
2023-03-28T12:53:49.039Z,5.72
2023-03-28T12:56:19.179Z,5.10
2023-03-28T12:58:49.581Z,5.22
2023-03-28T13:01:35.914Z,2.88
2023-03-28T13:04:16.764Z,4.75
2023-03-28T13:06:53.260Z,4.90
2023-03-28T13:09:35.598Z,4.90
2023-03-28T13:12:13.201Z,4.32
2023-03-28T13:14:44.301Z,4.68
2023-03-28T13:17:24.522Z,5.35
2023-03-28T13:19:56.048Z,5.57
2023-03-28T13:22:35.024Z,5.32
2023-03-28T13:25:27.500Z,5.30
2023-03-28T13:28:00.834Z,7.47
2023-03-28T13:30:32.442Z,6.03
2023-03-28T13:33:19.357Z,6.90
2023-03-28T13:35:50.536Z,5.18
2023-03-28T13:38:35.134Z,5.88
2023-03-28T13:41:07.087Z,4.95
2023-03-28T13:43:44.992Z,6.22
2023-03-28T13:46:16.822Z,5.80
2023-03-28T13:48:55.103Z,5.95
2023-03-28T13:51:27.573Z,7.35
2023-03-28T13:53:57.208Z,5.55
2023-03-28T13:56:28.681Z,5.13
2023-03-28T13:59:01.465Z,6.25
2023-03-28T14:01:38.100Z,5.10
2023-03-28T14:04:19.058Z,4.50
2023-03-28T14:06:48.778Z,4.15
2023-03-28T14:09:22.889Z,3.65
2023-03-28T14:11:53.259Z,5.03
2023-03-28T14:14:31.546Z,5.43
2023-03-28T14:17:04.130Z,4.55
2023-03-28T14:19:43.177Z,4.05
2023-03-28T14:22:18.011Z,6.60
2023-03-28T14:24:49.841Z,5.68
2023-03-28T14:27:31.889Z,6.15
2023-03-28T14:30:02.554Z,6.65
2023-03-28T14:32:36.304Z,5.95
2023-03-28T14:35:24.716Z,5.43
2023-03-28T14:37:56.132Z,3.83
2023-03-28T14:40:35.700Z,3.92
2023-03-28T14:43:10.227Z,5.97
2023-03-28T14:45:42.735Z,5.00
2023-03-28T14:48:19.248Z,5.32
2023-03-28T14:50:53.534Z,4.60
2023-03-28T14:53:25.062Z,5.90
2023-03-28T14:55:56.785Z,4.10
2023-03-28T14:58:28.583Z,3.85
2023-03-28T15:01:02.254Z,3.65
2023-03-28T15:03:39.172Z,3.67
2023-03-28T15:06:18.284Z,4.18
2023-03-28T15:08:48.413Z,3.40
2023-03-28T15:11:22.468Z,5.25
2023-03-28T15:13:53.776Z,4.40
2023-03-28T15:16:26.967Z,3.95
2023-03-28T15:19:07.082Z,5.30
2023-03-28T15:21:41.370Z,4.20
2023-03-28T15:24:14.561Z,4.25
2023-03-28T15:26:47.058Z,3.95
2023-03-28T15:29:20.321Z,6.03
2023-03-28T15:31:50.678Z,3.75
2023-03-28T15:34:26.972Z,4.13
2023-03-28T15:39:33.152Z,4.15
2023-03-28T15:42:04.154Z,8.15
2023-03-28T15:44:36.068Z,4.15
2023-03-28T15:47:08.325Z,5.28
2023-03-28T15:49:39.752Z,3.53
2023-03-28T15:52:22.378Z,4.43
2023-03-28T15:54:54.605Z,9.55
2023-03-28T15:57:25.811Z,5.35
2023-03-28T15:59:56.387Z,4.70
2023-03-28T16:02:37.524Z,4.30
2023-03-28T16:05:09.192Z,4.68
2023-03-28T16:07:51.621Z,3.63
2023-03-28T16:10:23.048Z,4.53
2023-03-28T16:12:53.343Z,6.47
2023-03-28T16:15:24.038Z,5.03
2023-03-28T16:17:55.736Z,6.35
2023-03-28T16:20:26.431Z,4.60
2023-03-28T16:22:58.562Z,6.05
2023-03-28T16:25:28.622Z,5.55
2023-03-28T16:27:58.529Z,4.55
2023-03-28T16:30:31.012Z,4.80
2023-03-28T16:33:01.224Z,6.50
2023-03-28T16:35:31.351Z,4.15
2023-03-28T16:38:03.939Z,5.22
2023-03-28T16:40:33.944Z,4.40
2023-03-28T16:43:03.556Z,5.50
2023-03-28T16:45:33.582Z,4.07
2023-03-28T16:48:03.196Z,3.80
2023-03-28T16:50:32.803Z,4.38
2023-03-28T16:53:06.729Z,5.55
2023-03-28T16:55:36.538Z,5.35
2023-03-28T16:58:06.773Z,5.65
2023-03-28T17:00:36.462Z,8.60
2023-03-28T17:03:06.148Z,6.82
2023-03-28T17:05:38.404Z,6.25
2023-03-28T17:08:10.743Z,7.57
2023-03-28T17:10:42.980Z,5.45
2023-03-28T17:13:12.682Z,5.55
2023-03-28T17:15:42.579Z,4.78
2023-03-28T17:18:12.360Z,6.05
2023-03-28T17:20:41.911Z,5.82
2023-03-28T17:23:14.087Z,5.13
2023-03-28T17:25:53.913Z,4.85
2023-03-28T17:28:24.506Z,8.10
2023-03-28T17:30:54.202Z,6.75
2023-03-28T17:33:24.719Z,7.47
2023-03-28T17:35:54.489Z,5.82
2023-03-28T17:38:26.687Z,6.85
2023-03-28T17:40:56.224Z,7.85
2023-03-28T17:43:25.808Z,7.60
2023-03-28T17:45:56.686Z,8.35
2023-03-28T17:48:26.225Z,9.32
2023-03-28T17:50:56.226Z,10.63
2023-03-28T17:53:28.420Z,9.57
2023-03-28T17:55:59.137Z,9.10
2023-03-28T17:58:28.838Z,8.25
2023-03-28T18:00:59.010Z,9.90
2023-03-28T18:03:28.836Z,11.85
2023-03-28T18:06:00.682Z,10.57
2023-03-28T18:08:33.440Z,10.50
2023-03-28T18:11:03.679Z,12.88
2023-03-28T18:13:33.214Z,12.93
2023-03-28T18:16:04.540Z,13.77
2023-03-28T18:18:34.701Z,10.50
2023-03-28T18:21:04.487Z,9.93
2023-03-28T18:23:37.021Z,9.45
2023-03-28T18:26:06.912Z,10.70
2023-03-28T18:28:36.956Z,10.70
2023-03-28T18:31:11.066Z,10.43
2023-03-28T18:33:41.343Z,10.77
2023-03-28T18:36:12.312Z,9.85
2023-03-28T18:38:46.730Z,9.80
2023-03-28T18:41:16.693Z,8.98
2023-03-28T18:43:46.361Z,10.10
2023-03-28T18:46:16.351Z,9.48
2023-03-28T18:48:46.706Z,9.85
2023-03-28T18:51:16.328Z,9.93
2023-03-28T18:53:48.486Z,10.35
2023-03-28T18:56:18.630Z,11.10
2023-03-28T18:58:50.467Z,10.43
2023-03-28T19:01:20.746Z,10.18
2023-03-28T19:03:50.690Z,13.93
2023-03-28T19:06:20.416Z,27.27
2023-03-28T19:08:54.058Z,41.65
2023-03-28T19:11:23.699Z,26.50
2023-03-28T19:13:53.258Z,20.67
2023-03-28T19:16:22.898Z,15.57
2023-03-28T19:18:52.502Z,12.00
2023-03-28T19:21:22.156Z,10.18
2023-03-28T19:23:54.311Z,11.32
2023-03-28T19:26:24.098Z,12.63
2023-03-28T19:28:53.754Z,10.13
2023-03-28T19:31:24.855Z,8.43
2023-03-28T19:33:54.498Z,9.13
2023-03-28T19:36:24.131Z,10.13
2023-03-28T19:38:56.362Z,13.18
2023-03-28T19:41:27.594Z,9.45
2023-03-28T19:43:57.931Z,11.13
2023-03-28T19:46:33.102Z,12.00
2023-03-28T19:49:07.140Z,11.65
2023-03-28T19:51:37.179Z,7.95
2023-03-28T19:54:09.390Z,10.63
2023-03-28T19:56:39.049Z,9.23
2023-03-28T19:59:08.693Z,11.30
2023-03-28T20:01:38.389Z,10.20
2023-03-28T20:04:08.568Z,12.32
2023-03-28T20:06:38.187Z,14.18
2023-03-28T20:09:10.429Z,12.25
2023-03-28T20:11:42.221Z,13.25
2023-03-28T20:14:17.179Z,15.30
2023-03-28T20:16:46.728Z,15.05
2023-03-28T20:19:18.268Z,14.10
2023-03-28T20:21:49.381Z,15.00
2023-03-28T20:24:21.508Z,20.90
2023-03-28T20:26:51.552Z,32.75
2023-03-28T20:29:21.815Z,41.38
2023-03-28T20:31:51.589Z,34.53
2023-03-28T20:34:21.280Z,27.35
2023-03-28T20:36:50.814Z,21.30
2023-03-28T20:39:26.336Z,19.48
2023-03-28T20:41:56.053Z,20.13
2023-03-28T20:44:30.028Z,16.92
2023-03-28T20:47:00.234Z,13.88
2023-03-28T20:49:29.827Z,17.48
2023-03-28T20:51:59.402Z,17.45
2023-03-28T20:54:31.750Z,13.20
2023-03-28T20:57:01.629Z,15.18
2023-03-28T20:59:32.276Z,17.13
2023-03-28T21:02:02.294Z,26.48
2023-03-28T21:04:32.245Z,29.17
2023-03-28T21:07:02.555Z,23.95
2023-03-28T21:09:34.642Z,26.85
2023-03-28T21:12:04.148Z,40.22
2023-03-28T21:14:33.657Z,63.55
2023-03-28T21:17:07.473Z,31.15
2023-03-28T21:19:37.412Z,26.83
2023-03-28T21:22:07.205Z,26.65
2023-03-28T21:24:39.338Z,23.85
2023-03-28T21:27:08.919Z,22.20
2023-03-28T21:29:39.067Z,18.98
2023-03-28T21:32:08.923Z,14.52
2023-03-28T21:34:39.196Z,11.73
2023-03-28T21:37:08.840Z,14.85
2023-03-28T21:39:41.101Z,18.50
2023-03-28T21:42:10.643Z,18.38
2023-03-28T21:44:40.226Z,17.17
2023-03-28T21:47:10.505Z,17.40
2023-03-28T21:49:40.266Z,21.50
2023-03-28T21:52:09.795Z,23.27
2023-03-28T21:54:41.995Z,20.05
2023-03-28T21:57:11.562Z,25.30
2023-03-28T21:59:41.463Z,26.30
2023-03-28T22:02:11.237Z,26.10
2023-03-28T22:04:41.213Z,24.90
2023-03-28T22:07:10.939Z,32.72
2023-03-28T22:09:44.715Z,32.03
2023-03-28T22:12:14.999Z,25.88
2023-03-28T22:14:44.609Z,24.20
2023-03-28T22:17:14.121Z,24.35
2023-03-28T22:19:43.947Z,26.17
2023-03-28T22:22:13.806Z,28.13
2023-03-28T22:24:46.273Z,28.85
2023-03-28T22:27:16.580Z,26.55
2023-03-28T22:29:46.122Z,23.75
2023-03-28T22:32:15.722Z,27.40
2023-03-28T22:34:45.272Z,21.92
2023-03-28T22:37:15.490Z,24.75
2023-03-28T22:39:47.828Z,26.50
2023-03-28T22:42:17.692Z,26.42
2023-03-28T22:44:48.341Z,20.95
2023-03-28T22:47:18.190Z,27.88
2023-03-28T22:49:48.410Z,22.95
2023-03-28T22:52:19.587Z,22.52
2023-03-28T22:54:52.975Z,26.00
2023-03-28T22:57:22.550Z,24.25
2023-03-28T22:59:53.321Z,25.92
2023-03-28T23:02:22.913Z,23.80
2023-03-28T23:04:54.332Z,24.63
2023-03-28T23:07:24.339Z,24.65
2023-03-28T23:09:56.964Z,25.45
2023-03-28T23:12:26.505Z,22.52
2023-03-28T23:14:56.651Z,26.92
2023-03-28T23:17:26.581Z,27.00
2023-03-28T23:19:56.202Z,20.02
2023-03-28T23:22:25.858Z,21.80
2023-03-28T23:24:57.982Z,26.10
2023-03-28T23:27:27.675Z,23.70
2023-03-28T23:29:57.247Z,23.20
2023-03-28T23:32:26.777Z,23.75
2023-03-28T23:34:56.822Z,27.48
2023-03-28T23:37:27.723Z,27.25
2023-03-28T23:40:00.331Z,24.95
2023-03-28T23:42:29.835Z,21.65
2023-03-28T23:44:59.454Z,26.10
2023-03-28T23:47:29.061Z,23.15
2023-03-28T23:49:58.666Z,29.30
2023-03-28T23:52:28.219Z,22.92
2023-03-28T23:55:00.317Z,29.73
2023-03-28T23:57:30.259Z,31.40
2023-03-28T23:59:59.931Z,41.80
